sensor_id;sensor_type;location;lat;lon;timestamp;P1;durP1;ratioP1;P2;durP2;ratioP2
4500;SDS011;2263;54.654;9.410;2023-05-20T00:01:00;3.67;;;2.70;;
4500;SDS011;2263;54.654;9.410;2023-05-20T00:03:28;3.90;;;2.60;;
4500;SDS011;2263;54.654;9.410;2023-05-20T00:05:56;5.40;;;2.60;;
4500;SDS011;2263;54.654;9.410;2023-05-20T00:08:23;8.60;;;2.90;;
4500;SDS011;2263;54.654;9.410;2023-05-20T00:10:51;3.30;;;2.60;;
4500;SDS011;2263;54.654;9.410;2023-05-20T00:13:19;3.03;;;2.53;;
4500;SDS011;2263;54.654;9.410;2023-05-20T00:15:46;3.33;;;2.70;;
4500;SDS011;2263;54.654;9.410;2023-05-20T00:18:14;3.63;;;2.60;;
4500;SDS011;2263;54.654;9.410;2023-05-20T00:20:42;2.90;;;2.70;;
4500;SDS011;2263;54.654;9.410;2023-05-20T00:23:09;5.40;;;3.20;;
4500;SDS011;2263;54.654;9.410;2023-05-20T00:25:37;2.60;;;2.40;;
4500;SDS011;2263;54.654;9.410;2023-05-20T00:28:07;2.60;;;2.40;;
4500;SDS011;2263;54.654;9.410;2023-05-20T00:30:37;6.33;;;3.40;;
4500;SDS011;2263;54.654;9.410;2023-05-20T00:33:08;3.00;;;2.70;;
4500;SDS011;2263;54.654;9.410;2023-05-20T00:35:36;4.17;;;2.83;;
4500;SDS011;2263;54.654;9.410;2023-05-20T00:38:03;3.43;;;2.47;;
4500;SDS011;2263;54.654;9.410;2023-05-20T00:40:31;3.93;;;3.53;;
4500;SDS011;2263;54.654;9.410;2023-05-20T00:43:01;5.73;;;2.40;;
4500;SDS011;2263;54.654;9.410;2023-05-20T00:45:29;2.67;;;2.47;;
4500;SDS011;2263;54.654;9.410;2023-05-20T00:47:58;3.10;;;2.80;;
4500;SDS011;2263;54.654;9.410;2023-05-20T00:50:27;3.33;;;2.50;;
4500;SDS011;2263;54.654;9.410;2023-05-20T00:52:55;2.90;;;2.47;;
4500;SDS011;2263;54.654;9.410;2023-05-20T00:55:23;3.30;;;2.50;;
4500;SDS011;2263;54.654;9.410;2023-05-20T00:57:51;5.97;;;2.60;;
4500;SDS011;2263;54.654;9.410;2023-05-20T01:00:20;4.50;;;3.60;;
4500;SDS011;2263;54.654;9.410;2023-05-20T01:02:47;3.37;;;2.67;;
4500;SDS011;2263;54.654;9.410;2023-05-20T01:05:15;3.93;;;3.30;;
4500;SDS011;2263;54.654;9.410;2023-05-20T01:07:43;3.63;;;2.87;;
4500;SDS011;2263;54.654;9.410;2023-05-20T01:10:11;6.77;;;2.80;;
4500;SDS011;2263;54.654;9.410;2023-05-20T01:12:40;3.00;;;2.70;;
4500;SDS011;2263;54.654;9.410;2023-05-20T01:15:14;3.40;;;2.60;;
4500;SDS011;2263;54.654;9.410;2023-05-20T01:17:46;3.20;;;2.53;;
4500;SDS011;2263;54.654;9.410;2023-05-20T01:20:17;3.37;;;2.90;;
4500;SDS011;2263;54.654;9.410;2023-05-20T01:25:15;6.00;;;2.80;;
4500;SDS011;2263;54.654;9.410;2023-05-20T01:27:43;3.23;;;3.03;;
4500;SDS011;2263;54.654;9.410;2023-05-20T01:30:12;2.70;;;2.50;;
4500;SDS011;2263;54.654;9.410;2023-05-20T01:32:47;6.43;;;3.00;;
4500;SDS011;2263;54.654;9.410;2023-05-20T01:35:19;2.67;;;2.47;;
4500;SDS011;2263;54.654;9.410;2023-05-20T01:37:48;4.13;;;3.17;;
4500;SDS011;2263;54.654;9.410;2023-05-20T01:40:18;3.03;;;2.83;;
4500;SDS011;2263;54.654;9.410;2023-05-20T01:42:45;2.67;;;2.47;;
4500;SDS011;2263;54.654;9.410;2023-05-20T01:45:19;3.63;;;2.90;;
4500;SDS011;2263;54.654;9.410;2023-05-20T01:47:47;4.23;;;2.53;;
4500;SDS011;2263;54.654;9.410;2023-05-20T01:50:15;6.37;;;3.17;;
4500;SDS011;2263;54.654;9.410;2023-05-20T01:52:43;3.93;;;2.80;;
4500;SDS011;2263;54.654;9.410;2023-05-20T01:55:10;4.97;;;2.87;;
4500;SDS011;2263;54.654;9.410;2023-05-20T01:57:38;2.83;;;2.63;;
4500;SDS011;2263;54.654;9.410;2023-05-20T02:00:06;3.10;;;2.40;;
4500;SDS011;2263;54.654;9.410;2023-05-20T02:02:35;3.30;;;2.40;;
4500;SDS011;2263;54.654;9.410;2023-05-20T02:05:03;4.23;;;2.80;;
4500;SDS011;2263;54.654;9.410;2023-05-20T02:07:31;4.10;;;3.00;;
4500;SDS011;2263;54.654;9.410;2023-05-20T02:09:58;3.27;;;2.97;;
4500;SDS011;2263;54.654;9.410;2023-05-20T02:12:26;4.70;;;2.73;;
4500;SDS011;2263;54.654;9.410;2023-05-20T02:14:54;2.43;;;2.20;;
4500;SDS011;2263;54.654;9.410;2023-05-20T02:17:21;3.90;;;2.80;;
4500;SDS011;2263;54.654;9.410;2023-05-20T02:19:49;3.90;;;2.50;;
4500;SDS011;2263;54.654;9.410;2023-05-20T02:22:16;3.20;;;2.30;;
4500;SDS011;2263;54.654;9.410;2023-05-20T02:24:44;2.90;;;2.20;;
4500;SDS011;2263;54.654;9.410;2023-05-20T02:27:12;4.17;;;2.03;;
4500;SDS011;2263;54.654;9.410;2023-05-20T02:29:41;3.23;;;2.13;;
4500;SDS011;2263;54.654;9.410;2023-05-20T02:32:10;4.90;;;2.60;;
4500;SDS011;2263;54.654;9.410;2023-05-20T02:34:38;2.63;;;2.27;;
4500;SDS011;2263;54.654;9.410;2023-05-20T02:37:05;5.10;;;2.67;;
4500;SDS011;2263;54.654;9.410;2023-05-20T02:39:33;2.50;;;2.30;;
4500;SDS011;2263;54.654;9.410;2023-05-20T02:42:01;2.70;;;2.50;;
4500;SDS011;2263;54.654;9.410;2023-05-20T02:44:30;2.10;;;1.90;;
4500;SDS011;2263;54.654;9.410;2023-05-20T02:46:58;2.40;;;2.20;;
4500;SDS011;2263;54.654;9.410;2023-05-20T02:49:25;3.80;;;2.10;;
4500;SDS011;2263;54.654;9.410;2023-05-20T02:51:53;3.20;;;2.90;;
4500;SDS011;2263;54.654;9.410;2023-05-20T02:54:21;1.97;;;1.87;;
4500;SDS011;2263;54.654;9.410;2023-05-20T02:56:49;2.77;;;2.53;;
4500;SDS011;2263;54.654;9.410;2023-05-20T02:59:16;3.93;;;3.50;;
4500;SDS011;2263;54.654;9.410;2023-05-20T03:01:44;2.50;;;2.20;;
4500;SDS011;2263;54.654;9.410;2023-05-20T03:04:11;6.13;;;2.20;;
4500;SDS011;2263;54.654;9.410;2023-05-20T03:06:39;1.60;;;1.50;;
4500;SDS011;2263;54.654;9.410;2023-05-20T03:09:10;2.80;;;1.60;;
4500;SDS011;2263;54.654;9.410;2023-05-20T03:11:37;2.10;;;1.60;;
4500;SDS011;2263;54.654;9.410;2023-05-20T03:14:05;2.03;;;1.83;;
4500;SDS011;2263;54.654;9.410;2023-05-20T03:16:33;4.17;;;1.73;;
4500;SDS011;2263;54.654;9.410;2023-05-20T03:19:01;3.63;;;1.90;;
4500;SDS011;2263;54.654;9.410;2023-05-20T03:21:28;2.40;;;1.67;;
4500;SDS011;2263;54.654;9.410;2023-05-20T03:23:56;1.70;;;1.60;;
4500;SDS011;2263;54.654;9.410;2023-05-20T03:26:24;2.03;;;1.83;;
4500;SDS011;2263;54.654;9.410;2023-05-20T03:28:51;2.30;;;1.73;;
4500;SDS011;2263;54.654;9.410;2023-05-20T03:31:19;1.83;;;1.63;;
4500;SDS011;2263;54.654;9.410;2023-05-20T03:33:47;3.13;;;2.10;;
4500;SDS011;2263;54.654;9.410;2023-05-20T03:36:14;2.03;;;1.57;;
4500;SDS011;2263;54.654;9.410;2023-05-20T03:38:42;2.10;;;1.50;;
4500;SDS011;2263;54.654;9.410;2023-05-20T03:41:10;2.53;;;1.40;;
4500;SDS011;2263;54.654;9.410;2023-05-20T03:43:37;1.77;;;1.67;;
4500;SDS011;2263;54.654;9.410;2023-05-20T03:46:05;3.97;;;1.50;;
4500;SDS011;2263;54.654;9.410;2023-05-20T03:48:33;2.37;;;1.37;;
4500;SDS011;2263;54.654;9.410;2023-05-20T03:51:00;2.20;;;1.53;;
4500;SDS011;2263;54.654;9.410;2023-05-20T03:53:29;3.10;;;1.83;;
4500;SDS011;2263;54.654;9.410;2023-05-20T03:55:57;1.43;;;1.33;;
4500;SDS011;2263;54.654;9.410;2023-05-20T03:58:24;3.33;;;2.00;;
4500;SDS011;2263;54.654;9.410;2023-05-20T04:00:54;2.23;;;0.90;;
4500;SDS011;2263;54.654;9.410;2023-05-20T04:03:25;2.20;;;1.47;;
4500;SDS011;2263;54.654;9.410;2023-05-20T04:05:54;2.30;;;1.60;;
4500;SDS011;2263;54.654;9.410;2023-05-20T04:08:22;3.30;;;1.17;;
4500;SDS011;2263;54.654;9.410;2023-05-20T04:10:55;2.70;;;1.90;;
4500;SDS011;2263;54.654;9.410;2023-05-20T04:13:23;5.37;;;1.70;;
4500;SDS011;2263;54.654;9.410;2023-05-20T04:15:51;11.73;;;2.07;;
4500;SDS011;2263;54.654;9.410;2023-05-20T04:18:19;2.10;;;1.40;;
4500;SDS011;2263;54.654;9.410;2023-05-20T04:20:47;7.20;;;3.40;;
4500;SDS011;2263;54.654;9.410;2023-05-20T04:23:18;5.40;;;1.50;;
4500;SDS011;2263;54.654;9.410;2023-05-20T04:25:46;2.60;;;1.87;;
4500;SDS011;2263;54.654;9.410;2023-05-20T04:28:14;3.03;;;1.30;;
4500;SDS011;2263;54.654;9.410;2023-05-20T04:30:42;1.60;;;1.47;;
4500;SDS011;2263;54.654;9.410;2023-05-20T04:33:12;2.33;;;1.50;;
4500;SDS011;2263;54.654;9.410;2023-05-20T04:35:40;1.50;;;1.30;;
4500;SDS011;2263;54.654;9.410;2023-05-20T04:38:08;1.40;;;1.10;;
4500;SDS011;2263;54.654;9.410;2023-05-20T04:40:36;2.77;;;1.37;;
4500;SDS011;2263;54.654;9.410;2023-05-20T04:43:04;4.23;;;1.30;;
4500;SDS011;2263;54.654;9.410;2023-05-20T04:45:32;3.20;;;1.57;;
4500;SDS011;2263;54.654;9.410;2023-05-20T04:48:01;2.57;;;0.90;;
4500;SDS011;2263;54.654;9.410;2023-05-20T04:50:29;4.43;;;1.47;;
4500;SDS011;2263;54.654;9.410;2023-05-20T04:52:57;6.00;;;1.37;;
4500;SDS011;2263;54.654;9.410;2023-05-20T04:55:25;1.80;;;1.27;;
4500;SDS011;2263;54.654;9.410;2023-05-20T04:57:54;1.50;;;0.90;;
4500;SDS011;2263;54.654;9.410;2023-05-20T05:00:22;5.70;;;1.77;;
4500;SDS011;2263;54.654;9.410;2023-05-20T05:02:49;1.70;;;1.10;;
4500;SDS011;2263;54.654;9.410;2023-05-20T05:05:18;1.63;;;1.30;;
4500;SDS011;2263;54.654;9.410;2023-05-20T05:07:46;4.17;;;1.30;;
4500;SDS011;2263;54.654;9.410;2023-05-20T05:10:14;2.23;;;1.17;;
4500;SDS011;2263;54.654;9.410;2023-05-20T05:12:42;1.50;;;1.10;;
4500;SDS011;2263;54.654;9.410;2023-05-20T05:15:09;3.27;;;1.83;;
4500;SDS011;2263;54.654;9.410;2023-05-20T05:17:37;2.00;;;1.77;;
4500;SDS011;2263;54.654;9.410;2023-05-20T05:20:05;1.70;;;1.60;;
4500;SDS011;2263;54.654;9.410;2023-05-20T05:22:34;2.83;;;1.57;;
4500;SDS011;2263;54.654;9.410;2023-05-20T05:25:02;2.27;;;1.50;;
4500;SDS011;2263;54.654;9.410;2023-05-20T05:27:30;1.80;;;1.57;;
4500;SDS011;2263;54.654;9.410;2023-05-20T05:29:58;4.03;;;1.63;;
4500;SDS011;2263;54.654;9.410;2023-05-20T05:32:25;4.07;;;1.77;;
4500;SDS011;2263;54.654;9.410;2023-05-20T05:34:53;2.57;;;1.90;;
4500;SDS011;2263;54.654;9.410;2023-05-20T05:37:21;6.07;;;1.83;;
4500;SDS011;2263;54.654;9.410;2023-05-20T05:39:49;2.47;;;2.27;;
4500;SDS011;2263;54.654;9.410;2023-05-20T05:42:17;3.83;;;2.13;;
4500;SDS011;2263;54.654;9.410;2023-05-20T05:44:44;1.90;;;1.70;;
4500;SDS011;2263;54.654;9.410;2023-05-20T05:47:13;2.67;;;1.83;;
4500;SDS011;2263;54.654;9.410;2023-05-20T05:49:41;2.40;;;2.00;;
4500;SDS011;2263;54.654;9.410;2023-05-20T05:52:09;1.60;;;1.50;;
4500;SDS011;2263;54.654;9.410;2023-05-20T05:54:36;3.00;;;1.70;;
4500;SDS011;2263;54.654;9.410;2023-05-20T05:57:04;2.43;;;1.73;;
4500;SDS011;2263;54.654;9.410;2023-05-20T05:59:33;2.50;;;2.03;;
4500;SDS011;2263;54.654;9.410;2023-05-20T06:02:00;1.30;;;1.10;;
4500;SDS011;2263;54.654;9.410;2023-05-20T06:04:28;4.70;;;2.23;;
4500;SDS011;2263;54.654;9.410;2023-05-20T06:07:02;4.10;;;1.87;;
4500;SDS011;2263;54.654;9.410;2023-05-20T06:09:30;3.37;;;1.73;;
4500;SDS011;2263;54.654;9.410;2023-05-20T06:11:58;6.23;;;2.03;;
4500;SDS011;2263;54.654;9.410;2023-05-20T06:14:25;4.07;;;2.00;;
4500;SDS011;2263;54.654;9.410;2023-05-20T06:16:53;5.00;;;1.60;;
4500;SDS011;2263;54.654;9.410;2023-05-20T06:19:21;5.67;;;1.53;;
4500;SDS011;2263;54.654;9.410;2023-05-20T06:21:48;2.30;;;1.70;;
4500;SDS011;2263;54.654;9.410;2023-05-20T06:24:16;1.93;;;1.13;;
4500;SDS011;2263;54.654;9.410;2023-05-20T06:26:44;1.63;;;1.50;;
4500;SDS011;2263;54.654;9.410;2023-05-20T06:29:12;1.73;;;1.63;;
4500;SDS011;2263;54.654;9.410;2023-05-20T06:31:39;2.97;;;1.40;;
4500;SDS011;2263;54.654;9.410;2023-05-20T06:34:07;1.97;;;1.77;;
4500;SDS011;2263;54.654;9.410;2023-05-20T06:36:34;2.50;;;1.30;;
4500;SDS011;2263;54.654;9.410;2023-05-20T06:39:02;2.07;;;1.30;;
4500;SDS011;2263;54.654;9.410;2023-05-20T06:41:32;1.70;;;1.30;;
4500;SDS011;2263;54.654;9.410;2023-05-20T06:43:59;4.93;;;2.03;;
4500;SDS011;2263;54.654;9.410;2023-05-20T06:46:27;1.87;;;0.90;;
4500;SDS011;2263;54.654;9.410;2023-05-20T06:48:55;1.70;;;1.23;;
4500;SDS011;2263;54.654;9.410;2023-05-20T06:51:22;2.10;;;1.23;;
4500;SDS011;2263;54.654;9.410;2023-05-20T06:53:50;6.17;;;1.67;;
4500;SDS011;2263;54.654;9.410;2023-05-20T06:56:17;5.27;;;1.63;;
4500;SDS011;2263;54.654;9.410;2023-05-20T06:58:45;1.77;;;1.00;;
4500;SDS011;2263;54.654;9.410;2023-05-20T07:01:13;2.33;;;1.10;;
4500;SDS011;2263;54.654;9.410;2023-05-20T07:03:43;3.20;;;1.13;;
4500;SDS011;2263;54.654;9.410;2023-05-20T07:06:11;3.77;;;1.00;;
4500;SDS011;2263;54.654;9.410;2023-05-20T07:08:39;4.53;;;1.10;;
4500;SDS011;2263;54.654;9.410;2023-05-20T07:11:06;2.63;;;1.20;;
4500;SDS011;2263;54.654;9.410;2023-05-20T07:13:34;1.33;;;1.23;;
4500;SDS011;2263;54.654;9.410;2023-05-20T07:16:02;1.90;;;1.40;;
4500;SDS011;2263;54.654;9.410;2023-05-20T07:18:33;4.83;;;1.53;;
4500;SDS011;2263;54.654;9.410;2023-05-20T07:21:00;1.37;;;0.90;;
4500;SDS011;2263;54.654;9.410;2023-05-20T07:23:28;1.60;;;0.90;;
4500;SDS011;2263;54.654;9.410;2023-05-20T07:25:56;2.50;;;1.50;;
4500;SDS011;2263;54.654;9.410;2023-05-20T07:28:23;1.70;;;1.13;;
4500;SDS011;2263;54.654;9.410;2023-05-20T07:30:51;2.23;;;1.10;;
4500;SDS011;2263;54.654;9.410;2023-05-20T07:33:21;3.40;;;0.90;;
4500;SDS011;2263;54.654;9.410;2023-05-20T07:35:49;1.90;;;1.00;;
4500;SDS011;2263;54.654;9.410;2023-05-20T07:38:17;25.17;;;2.10;;
4500;SDS011;2263;54.654;9.410;2023-05-20T07:40:45;1.40;;;0.90;;
4500;SDS011;2263;54.654;9.410;2023-05-20T07:43:13;2.73;;;1.30;;
4500;SDS011;2263;54.654;9.410;2023-05-20T07:45:41;3.00;;;1.10;;
4500;SDS011;2263;54.654;9.410;2023-05-20T07:48:09;3.80;;;1.37;;
4500;SDS011;2263;54.654;9.410;2023-05-20T07:50:38;3.17;;;1.33;;
4500;SDS011;2263;54.654;9.410;2023-05-20T07:53:06;1.30;;;1.10;;
4500;SDS011;2263;54.654;9.410;2023-05-20T07:55:34;1.50;;;1.30;;
4500;SDS011;2263;54.654;9.410;2023-05-20T07:58:05;2.50;;;1.07;;
4500;SDS011;2263;54.654;9.410;2023-05-20T08:00:32;1.53;;;1.03;;
4500;SDS011;2263;54.654;9.410;2023-05-20T08:03:00;9.33;;;1.50;;
4500;SDS011;2263;54.654;9.410;2023-05-20T08:05:28;3.10;;;1.40;;
4500;SDS011;2263;54.654;9.410;2023-05-20T08:07:56;2.53;;;1.47;;
4500;SDS011;2263;54.654;9.410;2023-05-20T08:10:24;2.50;;;1.20;;
4500;SDS011;2263;54.654;9.410;2023-05-20T08:12:51;2.53;;;2.33;;
4500;SDS011;2263;54.654;9.410;2023-05-20T08:15:19;1.20;;;0.90;;
4500;SDS011;2263;54.654;9.410;2023-05-20T08:17:49;2.67;;;1.30;;
4500;SDS011;2263;54.654;9.410;2023-05-20T08:20:17;3.50;;;1.50;;
4500;SDS011;2263;54.654;9.410;2023-05-20T08:22:45;5.93;;;1.23;;
4500;SDS011;2263;54.654;9.410;2023-05-20T08:25:13;2.70;;;1.40;;
4500;SDS011;2263;54.654;9.410;2023-05-20T08:27:41;3.03;;;1.37;;
4500;SDS011;2263;54.654;9.410;2023-05-20T08:30:09;3.10;;;1.10;;
4500;SDS011;2263;54.654;9.410;2023-05-20T08:32:37;3.07;;;1.93;;
4500;SDS011;2263;54.654;9.410;2023-05-20T08:35:06;4.53;;;1.67;;
4500;SDS011;2263;54.654;9.410;2023-05-20T08:37:34;2.13;;;1.77;;
4500;SDS011;2263;54.654;9.410;2023-05-20T08:40:01;2.00;;;1.67;;
4500;SDS011;2263;54.654;9.410;2023-05-20T08:42:30;2.93;;;1.80;;
4500;SDS011;2263;54.654;9.410;2023-05-20T08:44:58;4.70;;;2.30;;
4500;SDS011;2263;54.654;9.410;2023-05-20T08:47:27;1.60;;;1.43;;
4500;SDS011;2263;54.654;9.410;2023-05-20T08:49:55;4.20;;;1.37;;
4500;SDS011;2263;54.654;9.410;2023-05-20T08:52:22;3.40;;;1.90;;
4500;SDS011;2263;54.654;9.410;2023-05-20T08:54:51;2.60;;;1.27;;
4500;SDS011;2263;54.654;9.410;2023-05-20T08:57:19;1.70;;;1.53;;
4500;SDS011;2263;54.654;9.410;2023-05-20T08:59:47;5.67;;;1.50;;
4500;SDS011;2263;54.654;9.410;2023-05-20T09:02:14;5.00;;;4.60;;
4500;SDS011;2263;54.654;9.410;2023-05-20T09:04:43;5.77;;;2.73;;
4500;SDS011;2263;54.654;9.410;2023-05-20T09:07:11;4.90;;;2.40;;
4500;SDS011;2263;54.654;9.410;2023-05-20T09:09:38;2.50;;;1.90;;
4500;SDS011;2263;54.654;9.410;2023-05-20T09:12:06;2.03;;;1.60;;
4500;SDS011;2263;54.654;9.410;2023-05-20T09:14:34;2.90;;;1.70;;
4500;SDS011;2263;54.654;9.410;2023-05-20T09:17:03;3.13;;;1.70;;
4500;SDS011;2263;54.654;9.410;2023-05-20T09:19:31;2.53;;;1.80;;
4500;SDS011;2263;54.654;9.410;2023-05-20T09:21:59;3.03;;;1.83;;
4500;SDS011;2263;54.654;9.410;2023-05-20T09:24:30;1.60;;;1.50;;
4500;SDS011;2263;54.654;9.410;2023-05-20T09:26:58;4.03;;;1.73;;
4500;SDS011;2263;54.654;9.410;2023-05-20T09:29:26;2.10;;;1.50;;
4500;SDS011;2263;54.654;9.410;2023-05-20T09:31:54;2.50;;;1.60;;
4500;SDS011;2263;54.654;9.410;2023-05-20T09:34:22;1.30;;;1.03;;
4500;SDS011;2263;54.654;9.410;2023-05-20T09:36:50;4.30;;;2.80;;
4500;SDS011;2263;54.654;9.410;2023-05-20T09:39:19;6.10;;;1.53;;
4500;SDS011;2263;54.654;9.410;2023-05-20T09:42:04;1.87;;;1.63;;
4500;SDS011;2263;54.654;9.410;2023-05-20T09:44:38;3.03;;;1.67;;
4500;SDS011;2263;54.654;9.410;2023-05-20T09:47:06;2.23;;;1.47;;
4500;SDS011;2263;54.654;9.410;2023-05-20T09:49:35;5.63;;;1.70;;
4500;SDS011;2263;54.654;9.410;2023-05-20T09:52:05;1.60;;;1.13;;
4500;SDS011;2263;54.654;9.410;2023-05-20T09:54:33;2.43;;;1.30;;
4500;SDS011;2263;54.654;9.410;2023-05-20T09:57:02;2.73;;;1.83;;
4500;SDS011;2263;54.654;9.410;2023-05-20T09:59:33;4.30;;;1.60;;
4500;SDS011;2263;54.654;9.410;2023-05-20T10:02:04;4.27;;;1.27;;
4500;SDS011;2263;54.654;9.410;2023-05-20T10:04:33;1.60;;;1.20;;
4500;SDS011;2263;54.654;9.410;2023-05-20T10:10:12;1.60;;;1.43;;
4500;SDS011;2263;54.654;9.410;2023-05-20T10:12:48;2.50;;;1.20;;
4500;SDS011;2263;54.654;9.410;2023-05-20T10:15:33;3.33;;;1.50;;
4500;SDS011;2263;54.654;9.410;2023-05-20T10:20:48;4.20;;;1.30;;
4500;SDS011;2263;54.654;9.410;2023-05-20T10:23:22;3.30;;;1.70;;
4500;SDS011;2263;54.654;9.410;2023-05-20T10:25:54;2.60;;;1.23;;
4500;SDS011;2263;54.654;9.410;2023-05-20T10:28:30;4.00;;;1.40;;
4500;SDS011;2263;54.654;9.410;2023-05-20T10:30:59;2.43;;;1.30;;
4500;SDS011;2263;54.654;9.410;2023-05-20T10:33:27;4.10;;;1.10;;
4500;SDS011;2263;54.654;9.410;2023-05-20T10:35:59;1.67;;;1.37;;
4500;SDS011;2263;54.654;9.410;2023-05-20T10:38:27;2.10;;;1.60;;
4500;SDS011;2263;54.654;9.410;2023-05-20T10:40:54;1.70;;;1.13;;
4500;SDS011;2263;54.654;9.410;2023-05-20T10:43:33;2.73;;;1.17;;
4500;SDS011;2263;54.654;9.410;2023-05-20T10:46:01;1.50;;;1.30;;
4500;SDS011;2263;54.654;9.410;2023-05-20T10:48:35;2.60;;;1.47;;
4500;SDS011;2263;54.654;9.410;2023-05-20T10:51:10;2.23;;;1.33;;
4500;SDS011;2263;54.654;9.410;2023-05-20T10:53:40;1.40;;;1.03;;
4500;SDS011;2263;54.654;9.410;2023-05-20T10:56:15;1.90;;;1.40;;
4500;SDS011;2263;54.654;9.410;2023-05-20T10:58:47;2.43;;;2.23;;
4500;SDS011;2263;54.654;9.410;2023-05-20T11:01:15;3.67;;;1.53;;
4500;SDS011;2263;54.654;9.410;2023-05-20T11:03:44;2.23;;;1.40;;
4500;SDS011;2263;54.654;9.410;2023-05-20T11:06:15;1.50;;;1.40;;
4500;SDS011;2263;54.654;9.410;2023-05-20T11:08:44;1.80;;;1.40;;
4500;SDS011;2263;54.654;9.410;2023-05-20T11:11:12;4.90;;;1.30;;
4500;SDS011;2263;54.654;9.410;2023-05-20T11:13:41;1.50;;;1.10;;
4500;SDS011;2263;54.654;9.410;2023-05-20T11:16:08;2.33;;;1.70;;
4500;SDS011;2263;54.654;9.410;2023-05-20T11:18:36;2.87;;;1.60;;
4500;SDS011;2263;54.654;9.410;2023-05-20T11:21:04;1.43;;;1.03;;
4500;SDS011;2263;54.654;9.410;2023-05-20T11:23:32;2.13;;;1.10;;
4500;SDS011;2263;54.654;9.410;2023-05-20T11:26:00;3.07;;;1.40;;
4500;SDS011;2263;54.654;9.410;2023-05-20T11:28:28;1.93;;;1.40;;
4500;SDS011;2263;54.654;9.410;2023-05-20T11:30:58;3.97;;;1.77;;
4500;SDS011;2263;54.654;9.410;2023-05-20T11:33:26;2.20;;;1.47;;
4500;SDS011;2263;54.654;9.410;2023-05-20T11:35:59;2.57;;;1.40;;
4500;SDS011;2263;54.654;9.410;2023-05-20T11:38:30;3.60;;;1.57;;
4500;SDS011;2263;54.654;9.410;2023-05-20T11:40:58;7.80;;;2.23;;
4500;SDS011;2263;54.654;9.410;2023-05-20T11:43:25;1.93;;;1.53;;
4500;SDS011;2263;54.654;9.410;2023-05-20T11:45:54;1.50;;;1.40;;
4500;SDS011;2263;54.654;9.410;2023-05-20T11:48:25;2.43;;;1.00;;
4500;SDS011;2263;54.654;9.410;2023-05-20T11:50:54;1.40;;;1.10;;
4500;SDS011;2263;54.654;9.410;2023-05-20T11:53:22;2.00;;;1.80;;
4500;SDS011;2263;54.654;9.410;2023-05-20T11:55:52;1.67;;;1.53;;
4500;SDS011;2263;54.654;9.410;2023-05-20T11:58:25;2.60;;;1.80;;
4500;SDS011;2263;54.654;9.410;2023-05-20T12:00:53;2.10;;;1.20;;
4500;SDS011;2263;54.654;9.410;2023-05-20T12:03:39;6.43;;;1.60;;
4500;SDS011;2263;54.654;9.410;2023-05-20T12:06:13;3.10;;;1.50;;
4500;SDS011;2263;54.654;9.410;2023-05-20T12:08:40;3.10;;;1.60;;
4500;SDS011;2263;54.654;9.410;2023-05-20T12:11:08;7.77;;;2.33;;
4500;SDS011;2263;54.654;9.410;2023-05-20T12:13:36;5.60;;;1.70;;
4500;SDS011;2263;54.654;9.410;2023-05-20T12:16:04;2.57;;;1.30;;
4500;SDS011;2263;54.654;9.410;2023-05-20T12:18:32;2.40;;;1.70;;
4500;SDS011;2263;54.654;9.410;2023-05-20T12:21:00;4.70;;;1.93;;
4500;SDS011;2263;54.654;9.410;2023-05-20T12:23:27;4.50;;;1.50;;
4500;SDS011;2263;54.654;9.410;2023-05-20T12:25:59;2.10;;;1.60;;
4500;SDS011;2263;54.654;9.410;2023-05-20T12:28:27;1.87;;;1.60;;
4500;SDS011;2263;54.654;9.410;2023-05-20T12:30:55;3.20;;;1.83;;
4500;SDS011;2263;54.654;9.410;2023-05-20T12:33:22;1.67;;;1.37;;
4500;SDS011;2263;54.654;9.410;2023-05-20T12:35:50;3.43;;;1.77;;
4500;SDS011;2263;54.654;9.410;2023-05-20T12:38:18;3.20;;;1.50;;
4500;SDS011;2263;54.654;9.410;2023-05-20T12:40:45;2.23;;;1.83;;
4500;SDS011;2263;54.654;9.410;2023-05-20T12:43:13;2.67;;;1.73;;
4500;SDS011;2263;54.654;9.410;2023-05-20T12:45:41;4.43;;;1.60;;
4500;SDS011;2263;54.654;9.410;2023-05-20T12:48:09;6.53;;;1.63;;
4500;SDS011;2263;54.654;9.410;2023-05-20T12:50:36;5.93;;;1.70;;
4500;SDS011;2263;54.654;9.410;2023-05-20T12:53:04;1.90;;;1.70;;
4500;SDS011;2263;54.654;9.410;2023-05-20T12:55:31;3.90;;;1.93;;
4500;SDS011;2263;54.654;9.410;2023-05-20T12:57:59;3.73;;;2.03;;
4500;SDS011;2263;54.654;9.410;2023-05-20T13:00:27;2.57;;;1.70;;
4500;SDS011;2263;54.654;9.410;2023-05-20T13:02:54;3.00;;;1.67;;
4500;SDS011;2263;54.654;9.410;2023-05-20T13:05:22;2.27;;;2.07;;
4500;SDS011;2263;54.654;9.410;2023-05-20T13:07:50;2.20;;;1.40;;
4500;SDS011;2263;54.654;9.410;2023-05-20T13:10:18;2.80;;;2.03;;
4500;SDS011;2263;54.654;9.410;2023-05-20T13:12:45;3.30;;;1.30;;
4500;SDS011;2263;54.654;9.410;2023-05-20T13:15:13;1.53;;;1.10;;
4500;SDS011;2263;54.654;9.410;2023-05-20T13:17:41;2.10;;;1.90;;
4500;SDS011;2263;54.654;9.410;2023-05-20T13:20:09;2.23;;;1.40;;
4500;SDS011;2263;54.654;9.410;2023-05-20T13:22:37;2.33;;;1.30;;
4500;SDS011;2263;54.654;9.410;2023-05-20T13:25:05;2.83;;;1.77;;
4500;SDS011;2263;54.654;9.410;2023-05-20T13:27:33;2.10;;;1.40;;
4500;SDS011;2263;54.654;9.410;2023-05-20T13:30:01;6.33;;;1.70;;
4500;SDS011;2263;54.654;9.410;2023-05-20T13:32:29;12.47;;;2.10;;
4500;SDS011;2263;54.654;9.410;2023-05-20T13:34:57;7.17;;;1.70;;
4500;SDS011;2263;54.654;9.410;2023-05-20T13:37:25;7.20;;;1.60;;
4500;SDS011;2263;54.654;9.410;2023-05-20T13:39:53;1.60;;;1.30;;
4500;SDS011;2263;54.654;9.410;2023-05-20T13:42:20;1.63;;;1.40;;
4500;SDS011;2263;54.654;9.410;2023-05-20T13:44:48;3.17;;;1.40;;
4500;SDS011;2263;54.654;9.410;2023-05-20T13:47:15;2.30;;;1.53;;
4500;SDS011;2263;54.654;9.410;2023-05-20T13:49:43;1.93;;;1.13;;
4500;SDS011;2263;54.654;9.410;2023-05-20T13:52:11;1.40;;;1.13;;
4500;SDS011;2263;54.654;9.410;2023-05-20T13:54:38;1.83;;;1.30;;
4500;SDS011;2263;54.654;9.410;2023-05-20T13:57:08;9.77;;;1.50;;
4500;SDS011;2263;54.654;9.410;2023-05-20T13:59:37;3.90;;;1.47;;
4500;SDS011;2263;54.654;9.410;2023-05-20T14:02:08;1.63;;;1.53;;
4500;SDS011;2263;54.654;9.410;2023-05-20T14:04:36;2.53;;;1.10;;
4500;SDS011;2263;54.654;9.410;2023-05-20T14:07:06;3.20;;;1.73;;
4500;SDS011;2263;54.654;9.410;2023-05-20T14:09:35;3.07;;;1.50;;
4500;SDS011;2263;54.654;9.410;2023-05-20T14:12:04;5.10;;;1.40;;
4500;SDS011;2263;54.654;9.410;2023-05-20T14:14:32;2.13;;;1.63;;
4500;SDS011;2263;54.654;9.410;2023-05-20T14:16:59;3.67;;;1.40;;
4500;SDS011;2263;54.654;9.410;2023-05-20T14:19:27;11.63;;;2.57;;
4500;SDS011;2263;54.654;9.410;2023-05-20T14:21:55;2.20;;;1.50;;
4500;SDS011;2263;54.654;9.410;2023-05-20T14:24:26;3.30;;;1.90;;
4500;SDS011;2263;54.654;9.410;2023-05-20T14:26:54;5.30;;;1.80;;
4500;SDS011;2263;54.654;9.410;2023-05-20T14:29:22;6.43;;;2.27;;
4500;SDS011;2263;54.654;9.410;2023-05-20T14:31:50;8.63;;;2.50;;
4500;SDS011;2263;54.654;9.410;2023-05-20T14:34:17;4.40;;;1.80;;
4500;SDS011;2263;54.654;9.410;2023-05-20T14:36:45;7.03;;;1.93;;
4500;SDS011;2263;54.654;9.410;2023-05-20T14:39:13;4.13;;;1.57;;
4500;SDS011;2263;54.654;9.410;2023-05-20T14:41:41;4.07;;;1.73;;
4500;SDS011;2263;54.654;9.410;2023-05-20T14:44:08;2.53;;;1.77;;
4500;SDS011;2263;54.654;9.410;2023-05-20T14:46:36;4.03;;;1.53;;
4500;SDS011;2263;54.654;9.410;2023-05-20T14:49:04;5.83;;;2.13;;
4500;SDS011;2263;54.654;9.410;2023-05-20T14:51:31;2.80;;;1.70;;
4500;SDS011;2263;54.654;9.410;2023-05-20T14:53:59;9.53;;;1.93;;
4500;SDS011;2263;54.654;9.410;2023-05-20T14:56:27;4.40;;;1.70;;
4500;SDS011;2263;54.654;9.410;2023-05-20T14:58:54;1.70;;;1.20;;
4500;SDS011;2263;54.654;9.410;2023-05-20T15:01:22;2.80;;;2.23;;
4500;SDS011;2263;54.654;9.410;2023-05-20T15:03:49;2.83;;;1.73;;
4500;SDS011;2263;54.654;9.410;2023-05-20T15:06:17;4.30;;;2.33;;
4500;SDS011;2263;54.654;9.410;2023-05-20T15:08:45;4.93;;;1.97;;
4500;SDS011;2263;54.654;9.410;2023-05-20T15:11:13;5.53;;;2.00;;
4500;SDS011;2263;54.654;9.410;2023-05-20T15:13:43;2.30;;;1.60;;
4500;SDS011;2263;54.654;9.410;2023-05-20T15:16:12;2.63;;;2.07;;
4500;SDS011;2263;54.654;9.410;2023-05-20T15:18:40;2.57;;;1.40;;
4500;SDS011;2263;54.654;9.410;2023-05-20T15:21:07;1.70;;;1.50;;
4500;SDS011;2263;54.654;9.410;2023-05-20T15:23:35;5.73;;;2.53;;
4500;SDS011;2263;54.654;9.410;2023-05-20T15:26:03;5.50;;;1.90;;
4500;SDS011;2263;54.654;9.410;2023-05-20T15:28:30;4.57;;;1.87;;
4500;SDS011;2263;54.654;9.410;2023-05-20T15:30:58;4.40;;;1.90;;